createdAt,value
2022-08-14T00:01:14.055Z,19.43
2022-08-14T00:06:29.124Z,20.42
2022-08-14T00:11:32.398Z,24.23
2022-08-14T00:16:41.591Z,19.55
2022-08-14T00:21:50.892Z,20.95
2022-08-14T00:26:54.833Z,22.37
2022-08-14T00:31:57.883Z,22.92
2022-08-14T00:37:01.888Z,22.88
2022-08-14T00:42:06.805Z,21.23
2022-08-14T00:47:26.913Z,21.02
2022-08-14T00:52:32.336Z,21.73
2022-08-14T00:57:37.057Z,24.45
2022-08-14T01:02:45.660Z,20.45
2022-08-14T01:07:59.915Z,20.55
2022-08-14T01:13:02.719Z,20.17
2022-08-14T01:18:24.573Z,18.27
2022-08-14T01:23:41.805Z,24.55
2022-08-14T01:28:57.910Z,19.27
2022-08-14T01:35:19.759Z,24.55
2022-08-14T01:39:28.061Z,20.58
2022-08-14T01:44:36.564Z,19.97
2022-08-14T01:49:40.539Z,21.92
2022-08-14T01:54:58.144Z,20.10
2022-08-14T02:00:03.296Z,20.35
2022-08-14T02:05:12.399Z,18.15
2022-08-14T02:10:16.781Z,19.83
2022-08-14T02:15:22.195Z,18.30
2022-08-14T02:20:24.926Z,21.85
2022-08-14T02:25:29.920Z,20.38
2022-08-14T02:30:38.139Z,20.45
2022-08-14T02:35:43.672Z,23.90
2022-08-14T02:40:56.227Z,19.58
2022-08-14T02:45:59.743Z,20.30
2022-08-14T02:51:10.873Z,18.20
2022-08-14T02:56:30.305Z,19.33
2022-08-14T03:01:43.839Z,19.63
2022-08-14T03:07:06.062Z,18.35
2022-08-14T03:12:11.134Z,18.05
2022-08-14T03:17:14.143Z,18.17
2022-08-14T03:22:20.216Z,19.10
2022-08-14T03:27:26.615Z,21.37
2022-08-14T03:32:39.082Z,21.65
2022-08-14T03:39:10.291Z,20.08
2022-08-14T03:43:08.744Z,20.35
2022-08-14T03:48:29.486Z,22.63
2022-08-14T03:53:36.962Z,22.27
2022-08-14T03:58:42.736Z,22.05
2022-08-14T04:03:46.814Z,20.33
2022-08-14T04:08:52.457Z,21.77
2022-08-14T04:14:01.533Z,22.30
2022-08-14T04:19:05.105Z,23.70
2022-08-14T04:24:07.982Z,22.92
2022-08-14T04:29:16.564Z,23.02
2022-08-14T04:34:24.065Z,25.58
2022-08-14T04:39:48.905Z,25.23
2022-08-14T04:45:01.173Z,26.43
2022-08-14T04:50:07.185Z,20.27
2022-08-14T04:55:11.346Z,21.73
2022-08-14T05:00:16.300Z,23.90
2022-08-14T05:05:21.310Z,23.40
2022-08-14T05:10:32.184Z,24.73
2022-08-14T05:15:39.601Z,26.90
2022-08-14T05:21:57.782Z,24.15
2022-08-14T05:26:13.553Z,24.23
2022-08-14T05:31:20.670Z,23.63
2022-08-14T05:36:27.001Z,25.30
2022-08-14T05:41:53.673Z,21.83
2022-08-14T05:46:52.812Z,23.35
2022-08-14T05:51:58.043Z,25.20
2022-08-14T05:57:01.198Z,25.02
2022-08-14T06:02:05.998Z,23.37
2022-08-14T06:07:09.606Z,25.38
2022-08-14T06:12:12.336Z,22.50
2022-08-14T06:17:58.705Z,22.50
2022-08-14T06:23:01.999Z,20.65
2022-08-14T06:28:05.559Z,21.43
2022-08-14T06:33:45.702Z,20.48
2022-08-14T06:38:53.562Z,23.02
2022-08-14T06:43:57.092Z,21.08
2022-08-14T06:49:00.367Z,17.90
2022-08-14T06:54:03.270Z,20.67
2022-08-14T06:59:06.392Z,18.38
2022-08-14T07:04:27.702Z,19.52
2022-08-14T07:09:43.883Z,19.38
2022-08-14T07:14:58.214Z,20.33
2022-08-14T07:20:07.309Z,17.17
2022-08-14T07:25:10.648Z,18.38
2022-08-14T07:30:34.207Z,16.90
2022-08-14T07:35:57.660Z,19.10
2022-08-14T07:41:00.676Z,14.88
2022-08-14T07:46:04.631Z,13.43
2022-08-14T07:51:10.842Z,14.27
2022-08-14T07:56:44.250Z,13.30
2022-08-14T08:01:37.280Z,16.27
2022-08-14T08:06:40.302Z,15.75
2022-08-14T08:11:46.510Z,14.83
2022-08-14T08:16:57.762Z,13.95
2022-08-14T08:22:03.873Z,13.82
2022-08-14T08:27:17.953Z,11.85
2022-08-14T08:32:20.848Z,11.85
2022-08-14T08:37:40.186Z,11.70
2022-08-14T08:42:47.599Z,11.93
2022-08-14T08:47:55.516Z,12.25
2022-08-14T08:53:02.617Z,14.35
2022-08-14T08:58:12.534Z,11.77
2022-08-14T09:03:21.981Z,13.17
2022-08-14T09:08:31.746Z,10.57
2022-08-14T09:13:36.452Z,9.43
2022-08-14T09:18:41.914Z,10.43
2022-08-14T09:24:28.442Z,10.32
2022-08-14T09:29:09.779Z,11.37
2022-08-14T09:34:37.809Z,10.50
2022-08-14T09:40:16.527Z,10.25
2022-08-14T09:45:40.200Z,7.50
2022-08-14T09:50:58.274Z,9.93
2022-08-14T09:56:02.669Z,9.47
2022-08-14T10:01:17.312Z,10.02
2022-08-14T10:06:28.580Z,9.23
2022-08-14T10:11:38.196Z,8.02
2022-08-14T10:16:52.879Z,7.20
2022-08-14T10:23:15.404Z,9.30
2022-08-14T10:27:32.195Z,7.60
2022-08-14T10:32:51.421Z,8.48
2022-08-14T10:37:55.164Z,6.63
2022-08-14T10:42:59.382Z,7.18
2022-08-14T10:48:24.394Z,6.33
2022-08-14T10:53:40.283Z,8.02
2022-08-14T10:58:43.603Z,7.70
2022-08-14T11:03:56.043Z,7.03
2022-08-14T11:09:00.013Z,6.78
2022-08-14T11:14:06.927Z,7.03
2022-08-14T11:19:14.019Z,6.65
2022-08-14T11:24:53.970Z,6.28
2022-08-14T11:29:44.662Z,6.90
2022-08-14T11:34:47.698Z,7.55
2022-08-14T11:39:51.277Z,5.20
2022-08-14T11:45:00.220Z,4.65
2022-08-14T11:50:25.170Z,5.60
2022-08-14T11:55:39.939Z,5.85
2022-08-14T12:00:48.021Z,5.43
2022-08-14T12:05:50.931Z,5.60
2022-08-14T12:10:58.992Z,5.00
2022-08-14T12:16:06.365Z,5.10
2022-08-14T12:21:25.684Z,6.05
2022-08-14T12:26:40.741Z,4.85
2022-08-14T12:31:51.583Z,5.70
2022-08-14T12:37:06.911Z,4.72
2022-08-14T12:42:11.948Z,5.75
2022-08-14T12:47:31.733Z,4.50
2022-08-14T12:52:55.956Z,5.40
2022-08-14T12:58:29.458Z,6.50
2022-08-14T13:03:30.774Z,4.80
2022-08-14T13:08:34.707Z,6.28
2022-08-14T13:13:44.627Z,5.80
2022-08-14T13:18:48.466Z,5.32
2022-08-14T13:24:04.221Z,4.17
2022-08-14T13:29:10.795Z,4.63
2022-08-14T13:34:16.459Z,10.20
2022-08-14T13:39:21.537Z,4.82
2022-08-14T13:44:27.502Z,5.65
2022-08-14T13:49:30.578Z,6.80
2022-08-14T13:54:36.677Z,7.50
2022-08-14T13:59:46.719Z,8.25
2022-08-14T14:05:00.154Z,7.40
2022-08-14T14:10:09.973Z,11.57
2022-08-14T14:15:20.023Z,10.43
2022-08-14T14:20:35.973Z,7.55
2022-08-14T14:25:51.058Z,9.07
2022-08-14T14:31:06.118Z,8.60
2022-08-14T14:36:14.247Z,8.60
2022-08-14T14:41:21.743Z,7.77
2022-08-14T14:46:36.419Z,9.82
2022-08-14T14:51:41.814Z,9.18
2022-08-14T14:56:51.778Z,7.75
2022-08-14T15:02:09.431Z,6.65
2022-08-14T15:07:13.102Z,8.87
2022-08-14T15:12:55.077Z,8.32
2022-08-14T15:17:42.774Z,9.60
2022-08-14T15:22:50.950Z,10.18
2022-08-14T15:27:55.017Z,8.70
2022-08-14T15:32:58.072Z,7.90
2022-08-14T15:38:08.120Z,9.23
2022-08-14T15:43:12.851Z,9.93
2022-08-14T15:48:22.748Z,8.80
2022-08-14T15:53:26.468Z,9.50
2022-08-14T15:58:35.080Z,9.63
2022-08-14T16:03:40.856Z,12.15
2022-08-14T16:08:58.791Z,11.40
2022-08-14T16:14:06.894Z,10.98
2022-08-14T16:19:11.224Z,11.18
2022-08-14T16:24:27.528Z,11.77
2022-08-14T16:29:34.607Z,9.13
2022-08-14T16:34:44.485Z,10.40
2022-08-14T16:39:49.998Z,11.15
2022-08-14T16:44:59.512Z,12.18
2022-08-14T16:50:08.353Z,12.57
2022-08-14T16:55:14.021Z,10.98
2022-08-14T17:00:44.004Z,12.63
2022-08-14T17:05:48.694Z,12.55
2022-08-14T17:10:51.781Z,11.90
2022-08-14T17:16:25.158Z,10.00
2022-08-14T17:21:41.034Z,12.68
2022-08-14T17:26:48.521Z,13.15
2022-08-14T17:32:22.074Z,12.23
2022-08-14T17:37:36.700Z,12.50
2022-08-14T17:42:53.377Z,13.23
2022-08-14T17:47:59.327Z,14.23
2022-08-14T17:53:03.516Z,13.63
2022-08-14T17:58:20.514Z,14.05
2022-08-14T18:03:50.823Z,11.77
2022-08-14T18:08:56.708Z,16.30
2022-08-14T18:14:02.052Z,13.85
2022-08-14T18:19:05.335Z,14.80
2022-08-14T18:24:20.001Z,15.07
2022-08-14T18:29:33.347Z,14.60
2022-08-14T18:34:50.903Z,14.47
2022-08-14T18:40:02.775Z,15.82
2022-08-14T18:45:12.951Z,16.55
2022-08-14T18:50:27.040Z,17.23
2022-08-14T18:55:34.175Z,19.75
2022-08-14T19:00:51.379Z,15.90
2022-08-14T19:05:54.967Z,17.17
2022-08-14T19:11:05.282Z,19.20
2022-08-14T19:16:13.407Z,19.33
2022-08-14T19:21:51.733Z,16.98
2022-08-14T19:27:24.117Z,16.70
2022-08-14T19:32:41.055Z,20.23
2022-08-14T19:37:47.857Z,16.60
2022-08-14T19:42:51.313Z,18.42
2022-08-14T19:48:02.261Z,19.48
2022-08-14T19:53:10.726Z,19.03
2022-08-14T19:58:14.451Z,18.45
2022-08-14T20:03:23.303Z,21.35
2022-08-14T20:11:02.420Z,19.70
2022-08-14T20:13:58.521Z,21.02
2022-08-14T20:19:12.829Z,19.67
2022-08-14T20:24:30.988Z,19.02
2022-08-14T20:29:38.077Z,23.35
2022-08-14T20:34:51.156Z,23.92
2022-08-14T20:39:55.608Z,25.13
2022-08-14T20:45:19.729Z,23.53
2022-08-14T20:50:28.214Z,24.88
2022-08-14T20:55:41.689Z,28.83
2022-08-14T21:00:57.907Z,24.38
2022-08-14T21:06:17.345Z,24.40
2022-08-14T21:11:25.980Z,25.17
2022-08-14T21:16:30.872Z,28.70
2022-08-14T21:21:42.477Z,21.15
2022-08-14T21:26:52.054Z,24.40
2022-08-14T21:32:03.491Z,23.52
2022-08-14T21:37:23.976Z,28.70
2022-08-14T21:42:28.423Z,26.85
2022-08-14T21:47:32.208Z,23.17
2022-08-14T21:52:51.210Z,27.98
2022-08-14T21:58:52.948Z,28.63
2022-08-14T22:03:24.413Z,25.77
2022-08-14T22:08:27.825Z,25.83
2022-08-14T22:13:32.538Z,26.35
2022-08-14T22:18:36.590Z,25.90
2022-08-14T22:23:39.776Z,26.65
2022-08-14T22:28:44.805Z,28.60
2022-08-14T22:33:49.902Z,28.05
2022-08-14T22:39:01.415Z,31.95
2022-08-14T22:44:11.653Z,24.75
2022-08-14T22:50:29.234Z,27.05
2022-08-14T22:54:52.566Z,27.90
2022-08-14T22:59:56.939Z,26.30
2022-08-14T23:05:03.731Z,28.48
2022-08-14T23:10:33.512Z,27.73
2022-08-14T23:15:30.593Z,29.33
2022-08-14T23:20:36.304Z,31.43
2022-08-14T23:25:57.938Z,27.80
2022-08-14T23:31:05.604Z,26.92
2022-08-14T23:36:31.885Z,29.70
2022-08-14T23:41:46.944Z,24.00
2022-08-14T23:47:03.237Z,25.50
2022-08-14T23:52:50.734Z,25.35
2022-08-14T23:57:31.144Z,27.42
